sensor_id;sensor_type;location;lat;lon;timestamp;P1;durP1;ratioP1;P2;durP2;ratioP2
46675;SDS011;32412;51.478;5.694;2023-04-25T00:01:19;7.53;;;3.47;;
46675;SDS011;32412;51.478;5.694;2023-04-25T00:03:46;15.18;;;4.68;;
46675;SDS011;32412;51.478;5.694;2023-04-25T00:06:13;12.50;;;3.65;;
46675;SDS011;32412;51.478;5.694;2023-04-25T00:08:39;8.80;;;3.22;;
46675;SDS011;32412;51.478;5.694;2023-04-25T00:11:05;9.95;;;3.75;;
46675;SDS011;32412;51.478;5.694;2023-04-25T00:13:31;10.25;;;3.50;;
46675;SDS011;32412;51.478;5.694;2023-04-25T00:15:58;14.95;;;3.40;;
46675;SDS011;32412;51.478;5.694;2023-04-25T00:18:25;12.27;;;3.80;;
46675;SDS011;32412;51.478;5.694;2023-04-25T00:20:53;10.65;;;3.20;;
46675;SDS011;32412;51.478;5.694;2023-04-25T00:23:20;15.95;;;3.85;;
46675;SDS011;32412;51.478;5.694;2023-04-25T00:25:49;11.65;;;3.45;;
46675;SDS011;32412;51.478;5.694;2023-04-25T00:28:15;13.45;;;3.63;;
46675;SDS011;32412;51.478;5.694;2023-04-25T00:30:42;10.27;;;3.65;;
46675;SDS011;32412;51.478;5.694;2023-04-25T00:33:08;10.45;;;3.65;;
46675;SDS011;32412;51.478;5.694;2023-04-25T00:39:26;11.38;;;3.33;;
46675;SDS011;32412;51.478;5.694;2023-04-25T00:45:54;11.80;;;3.47;;
46675;SDS011;32412;51.478;5.694;2023-04-25T00:48:56;10.93;;;3.50;;
46675;SDS011;32412;51.478;5.694;2023-04-25T00:51:53;13.40;;;3.55;;
46675;SDS011;32412;51.478;5.694;2023-04-25T00:57:44;15.43;;;3.35;;
46675;SDS011;32412;51.478;5.694;2023-04-25T01:07:14;20.15;;;4.07;;
46675;SDS011;32412;51.478;5.694;2023-04-25T01:14:01;16.55;;;3.80;;
46675;SDS011;32412;51.478;5.694;2023-04-25T01:20:03;17.25;;;3.88;;
46675;SDS011;32412;51.478;5.694;2023-04-25T01:35:14;13.00;;;3.75;;
46675;SDS011;32412;51.478;5.694;2023-04-25T01:37:44;15.93;;;4.13;;
46675;SDS011;32412;51.478;5.694;2023-04-25T01:43:47;19.42;;;4.50;;
46675;SDS011;32412;51.478;5.694;2023-04-25T01:56:49;14.27;;;4.78;;
46675;SDS011;32412;51.478;5.694;2023-04-25T02:05:15;15.38;;;4.35;;
46675;SDS011;32412;51.478;5.694;2023-04-25T02:07:41;20.23;;;5.22;;
46675;SDS011;32412;51.478;5.694;2023-04-25T02:10:07;17.08;;;4.95;;
46675;SDS011;32412;51.478;5.694;2023-04-25T02:12:33;14.38;;;4.90;;
46675;SDS011;32412;51.478;5.694;2023-04-25T02:15:00;19.20;;;5.43;;
46675;SDS011;32412;51.478;5.694;2023-04-25T02:17:26;19.15;;;4.65;;
46675;SDS011;32412;51.478;5.694;2023-04-25T02:19:52;18.42;;;4.90;;
46675;SDS011;32412;51.478;5.694;2023-04-25T02:22:17;21.30;;;4.50;;
46675;SDS011;32412;51.478;5.694;2023-04-25T02:24:43;18.20;;;4.60;;
46675;SDS011;32412;51.478;5.694;2023-04-25T02:27:09;19.30;;;5.38;;
46675;SDS011;32412;51.478;5.694;2023-04-25T02:29:35;19.85;;;5.43;;
46675;SDS011;32412;51.478;5.694;2023-04-25T02:32:09;15.88;;;4.10;;
46675;SDS011;32412;51.478;5.694;2023-04-25T02:38:02;21.60;;;4.85;;
46675;SDS011;32412;51.478;5.694;2023-04-25T02:40:36;15.27;;;4.50;;
46675;SDS011;32412;51.478;5.694;2023-04-25T02:46:55;18.90;;;4.40;;
46675;SDS011;32412;51.478;5.694;2023-04-25T02:53:27;12.57;;;4.70;;
46675;SDS011;32412;51.478;5.694;2023-04-25T02:59:36;12.77;;;4.60;;
46675;SDS011;32412;51.478;5.694;2023-04-25T03:02:15;18.50;;;4.75;;
46675;SDS011;32412;51.478;5.694;2023-04-25T03:05:02;19.73;;;5.20;;
46675;SDS011;32412;51.478;5.694;2023-04-25T03:17:39;18.45;;;4.95;;
46675;SDS011;32412;51.478;5.694;2023-04-25T03:39:40;23.13;;;5.38;;
46675;SDS011;32412;51.478;5.694;2023-04-25T04:03:58;22.38;;;5.95;;
46675;SDS011;32412;51.478;5.694;2023-04-25T04:06:29;26.60;;;5.32;;
46675;SDS011;32412;51.478;5.694;2023-04-25T04:08:55;14.45;;;5.07;;
46675;SDS011;32412;51.478;5.694;2023-04-25T04:11:21;21.75;;;5.65;;
46675;SDS011;32412;51.478;5.694;2023-04-25T04:13:47;19.52;;;5.30;;
46675;SDS011;32412;51.478;5.694;2023-04-25T04:16:13;19.90;;;4.88;;
46675;SDS011;32412;51.478;5.694;2023-04-25T04:18:41;15.93;;;4.55;;
46675;SDS011;32412;51.478;5.694;2023-04-25T04:21:07;19.90;;;5.50;;
46675;SDS011;32412;51.478;5.694;2023-04-25T04:23:32;19.60;;;5.18;;
46675;SDS011;32412;51.478;5.694;2023-04-25T04:25:58;23.45;;;5.95;;
46675;SDS011;32412;51.478;5.694;2023-04-25T04:28:29;14.38;;;4.88;;
46675;SDS011;32412;51.478;5.694;2023-04-25T04:30:54;15.38;;;5.10;;
46675;SDS011;32412;51.478;5.694;2023-04-25T04:33:20;19.15;;;5.03;;
46675;SDS011;32412;51.478;5.694;2023-04-25T04:35:48;16.52;;;4.57;;
46675;SDS011;32412;51.478;5.694;2023-04-25T04:38:16;20.13;;;5.93;;
46675;SDS011;32412;51.478;5.694;2023-04-25T04:40:43;20.30;;;5.78;;
46675;SDS011;32412;51.478;5.694;2023-04-25T04:43:11;17.73;;;5.50;;
46675;SDS011;32412;51.478;5.694;2023-04-25T04:45:38;18.20;;;5.57;;
46675;SDS011;32412;51.478;5.694;2023-04-25T04:48:05;20.85;;;4.95;;
46675;SDS011;32412;51.478;5.694;2023-04-25T04:50:33;28.15;;;5.00;;
46675;SDS011;32412;51.478;5.694;2023-04-25T04:53:00;15.10;;;4.60;;
46675;SDS011;32412;51.478;5.694;2023-04-25T04:55:26;17.42;;;4.55;;
46675;SDS011;32412;51.478;5.694;2023-04-25T04:57:52;14.65;;;4.50;;
46675;SDS011;32412;51.478;5.694;2023-04-25T05:00:18;19.33;;;4.80;;
46675;SDS011;32412;51.478;5.694;2023-04-25T05:02:45;26.88;;;4.93;;
46675;SDS011;32412;51.478;5.694;2023-04-25T05:05:11;19.85;;;4.15;;
46675;SDS011;32412;51.478;5.694;2023-04-25T05:07:37;16.90;;;4.40;;
46675;SDS011;32412;51.478;5.694;2023-04-25T05:10:02;18.88;;;4.55;;
46675;SDS011;32412;51.478;5.694;2023-04-25T05:12:31;15.27;;;4.30;;
46675;SDS011;32412;51.478;5.694;2023-04-25T05:14:57;18.80;;;4.25;;
46675;SDS011;32412;51.478;5.694;2023-04-25T05:17:25;19.95;;;4.72;;
46675;SDS011;32412;51.478;5.694;2023-04-25T05:19:51;12.73;;;3.92;;
46675;SDS011;32412;51.478;5.694;2023-04-25T05:28:42;16.90;;;4.32;;
46675;SDS011;32412;51.478;5.694;2023-04-25T05:31:11;18.30;;;4.63;;
46675;SDS011;32412;51.478;5.694;2023-04-25T05:33:37;15.75;;;3.95;;
46675;SDS011;32412;51.478;5.694;2023-04-25T05:36:05;18.73;;;4.38;;
46675;SDS011;32412;51.478;5.694;2023-04-25T05:38:32;14.75;;;3.63;;
46675;SDS011;32412;51.478;5.694;2023-04-25T05:40:57;11.48;;;3.58;;
46675;SDS011;32412;51.478;5.694;2023-04-25T05:43:23;18.67;;;3.95;;
46675;SDS011;32412;51.478;5.694;2023-04-25T05:45:49;12.73;;;3.58;;
46675;SDS011;32412;51.478;5.694;2023-04-25T05:48:15;19.85;;;3.97;;
46675;SDS011;32412;51.478;5.694;2023-04-25T05:50:41;24.58;;;4.07;;
46675;SDS011;32412;51.478;5.694;2023-04-25T05:53:06;14.30;;;4.00;;
46675;SDS011;32412;51.478;5.694;2023-04-25T05:55:32;22.58;;;4.00;;
46675;SDS011;32412;51.478;5.694;2023-04-25T05:57:58;15.45;;;3.63;;
46675;SDS011;32412;51.478;5.694;2023-04-25T06:00:24;17.70;;;3.67;;
46675;SDS011;32412;51.478;5.694;2023-04-25T06:02:49;16.38;;;3.60;;
46675;SDS011;32412;51.478;5.694;2023-04-25T06:05:15;16.42;;;3.67;;
46675;SDS011;32412;51.478;5.694;2023-04-25T06:07:41;12.80;;;3.33;;
46675;SDS011;32412;51.478;5.694;2023-04-25T06:10:07;14.30;;;3.72;;
46675;SDS011;32412;51.478;5.694;2023-04-25T06:12:33;13.90;;;3.88;;
46675;SDS011;32412;51.478;5.694;2023-04-25T06:14:59;15.13;;;3.63;;
46675;SDS011;32412;51.478;5.694;2023-04-25T06:17:25;14.77;;;3.60;;
46675;SDS011;32412;51.478;5.694;2023-04-25T06:19:51;12.55;;;3.72;;
46675;SDS011;32412;51.478;5.694;2023-04-25T06:22:17;14.88;;;3.05;;
46675;SDS011;32412;51.478;5.694;2023-04-25T06:24:43;14.45;;;3.30;;
46675;SDS011;32412;51.478;5.694;2023-04-25T06:27:08;13.32;;;3.15;;
46675;SDS011;32412;51.478;5.694;2023-04-25T06:29:37;14.48;;;3.75;;
46675;SDS011;32412;51.478;5.694;2023-04-25T06:32:02;11.80;;;3.28;;
46675;SDS011;32412;51.478;5.694;2023-04-25T06:34:30;15.77;;;3.00;;
46675;SDS011;32412;51.478;5.694;2023-04-25T06:36:59;14.93;;;3.28;;
46675;SDS011;32412;51.478;5.694;2023-04-25T06:46:17;12.50;;;2.45;;
46675;SDS011;32412;51.478;5.694;2023-04-25T06:49:01;12.18;;;3.50;;
46675;SDS011;32412;51.478;5.694;2023-04-25T06:54:56;13.00;;;2.47;;
46675;SDS011;32412;51.478;5.694;2023-04-25T06:57:21;12.55;;;2.45;;
46675;SDS011;32412;51.478;5.694;2023-04-25T06:59:47;7.18;;;2.67;;
46675;SDS011;32412;51.478;5.694;2023-04-25T07:02:13;13.40;;;3.53;;
46675;SDS011;32412;51.478;5.694;2023-04-25T07:04:38;11.45;;;2.75;;
46675;SDS011;32412;51.478;5.694;2023-04-25T07:07:04;10.23;;;2.65;;
46675;SDS011;32412;51.478;5.694;2023-04-25T07:09:30;9.07;;;2.70;;
46675;SDS011;32412;51.478;5.694;2023-04-25T07:11:58;11.25;;;2.35;;
46675;SDS011;32412;51.478;5.694;2023-04-25T07:14:26;12.07;;;2.75;;
46675;SDS011;32412;51.478;5.694;2023-04-25T07:16:52;13.68;;;2.88;;
46675;SDS011;32412;51.478;5.694;2023-04-25T07:19:20;7.47;;;2.00;;
46675;SDS011;32412;51.478;5.694;2023-04-25T07:21:46;6.75;;;2.53;;
46675;SDS011;32412;51.478;5.694;2023-04-25T07:24:14;10.77;;;1.98;;
46675;SDS011;32412;51.478;5.694;2023-04-25T07:26:40;9.20;;;1.88;;
46675;SDS011;32412;51.478;5.694;2023-04-25T07:29:06;4.68;;;2.08;;
46675;SDS011;32412;51.478;5.694;2023-04-25T07:31:31;9.82;;;2.45;;
46675;SDS011;32412;51.478;5.694;2023-04-25T07:33:57;13.15;;;2.47;;
46675;SDS011;32412;51.478;5.694;2023-04-25T07:36:23;14.98;;;2.20;;
46675;SDS011;32412;51.478;5.694;2023-04-25T07:38:49;7.15;;;2.05;;
46675;SDS011;32412;51.478;5.694;2023-04-25T07:41:17;8.07;;;2.20;;
46675;SDS011;32412;51.478;5.694;2023-04-25T07:43:43;7.60;;;2.05;;
46675;SDS011;32412;51.478;5.694;2023-04-25T07:46:18;9.40;;;1.92;;
46675;SDS011;32412;51.478;5.694;2023-04-25T07:59:02;11.55;;;1.63;;
46675;SDS011;32412;51.478;5.694;2023-04-25T08:10:56;6.70;;;1.50;;
46675;SDS011;32412;51.478;5.694;2023-04-25T08:13:35;10.73;;;1.50;;
46675;SDS011;32412;51.478;5.694;2023-04-25T08:16:16;11.18;;;1.92;;
46675;SDS011;32412;51.478;5.694;2023-04-25T08:18:53;9.52;;;1.90;;
46675;SDS011;32412;51.478;5.694;2023-04-25T08:28:01;8.50;;;1.65;;
46675;SDS011;32412;51.478;5.694;2023-04-25T08:30:36;6.63;;;1.80;;
46675;SDS011;32412;51.478;5.694;2023-04-25T08:36:34;7.25;;;1.83;;
46675;SDS011;32412;51.478;5.694;2023-04-25T08:39:05;6.18;;;1.50;;
46675;SDS011;32412;51.478;5.694;2023-04-25T08:41:33;5.82;;;1.65;;
46675;SDS011;32412;51.478;5.694;2023-04-25T08:44:01;9.75;;;1.42;;
46675;SDS011;32412;51.478;5.694;2023-04-25T08:46:29;6.57;;;1.60;;
46675;SDS011;32412;51.478;5.694;2023-04-25T08:48:58;10.93;;;1.50;;
46675;SDS011;32412;51.478;5.694;2023-04-25T08:51:26;9.52;;;1.98;;
46675;SDS011;32412;51.478;5.694;2023-04-25T08:54:10;4.30;;;1.15;;
46675;SDS011;32412;51.478;5.694;2023-04-25T08:56:40;12.70;;;1.48;;
46675;SDS011;32412;51.478;5.694;2023-04-25T08:59:16;6.10;;;1.52;;
46675;SDS011;32412;51.478;5.694;2023-04-25T09:01:57;10.55;;;2.25;;
46675;SDS011;32412;51.478;5.694;2023-04-25T09:04:26;9.80;;;1.70;;
46675;SDS011;32412;51.478;5.694;2023-04-25T09:06:52;10.38;;;1.80;;
46675;SDS011;32412;51.478;5.694;2023-04-25T09:09:29;8.27;;;1.50;;
46675;SDS011;32412;51.478;5.694;2023-04-25T09:11:58;6.68;;;1.67;;
46675;SDS011;32412;51.478;5.694;2023-04-25T09:17:56;5.13;;;1.50;;
46675;SDS011;32412;51.478;5.694;2023-04-25T09:26:36;7.80;;;1.90;;
46675;SDS011;32412;51.478;5.694;2023-04-25T09:29:06;6.13;;;1.48;;
46675;SDS011;32412;51.478;5.694;2023-04-25T09:31:47;9.38;;;1.90;;
46675;SDS011;32412;51.478;5.694;2023-04-25T09:38:14;5.38;;;1.33;;
46675;SDS011;32412;51.478;5.694;2023-04-25T09:40:44;4.78;;;1.45;;
46675;SDS011;32412;51.478;5.694;2023-04-25T09:43:23;5.53;;;1.60;;
46675;SDS011;32412;51.478;5.694;2023-04-25T09:45:54;6.47;;;1.35;;
46675;SDS011;32412;51.478;5.694;2023-04-25T09:48:34;3.70;;;1.75;;
46675;SDS011;32412;51.478;5.694;2023-04-25T09:51:05;5.72;;;1.80;;
46675;SDS011;32412;51.478;5.694;2023-04-25T09:53:43;9.68;;;2.22;;
46675;SDS011;32412;51.478;5.694;2023-04-25T09:56:21;7.15;;;1.42;;
46675;SDS011;32412;51.478;5.694;2023-04-25T09:58:59;8.43;;;1.60;;
46675;SDS011;32412;51.478;5.694;2023-04-25T10:01:28;5.40;;;1.10;;
46675;SDS011;32412;51.478;5.694;2023-04-25T10:03:57;3.25;;;1.02;;
46675;SDS011;32412;51.478;5.694;2023-04-25T10:06:36;3.42;;;0.80;;
46675;SDS011;32412;51.478;5.694;2023-04-25T10:09:03;4.13;;;0.50;;
46675;SDS011;32412;51.478;5.694;2023-04-25T10:11:32;0.70;;;0.40;;
46675;SDS011;32412;51.478;5.694;2023-04-25T10:14:02;1.55;;;0.50;;
46675;SDS011;32412;51.478;5.694;2023-04-25T10:16:31;1.85;;;0.70;;
46675;SDS011;32412;51.478;5.694;2023-04-25T10:18:57;5.03;;;1.27;;
46675;SDS011;32412;51.478;5.694;2023-04-25T10:21:27;3.05;;;0.73;;
46675;SDS011;32412;51.478;5.694;2023-04-25T10:23:56;4.05;;;0.63;;
46675;SDS011;32412;51.478;5.694;2023-04-25T10:26:23;3.92;;;0.80;;
46675;SDS011;32412;51.478;5.694;2023-04-25T10:29:01;0.65;;;0.47;;
46675;SDS011;32412;51.478;5.694;2023-04-25T10:32:04;2.88;;;0.82;;
46675;SDS011;32412;51.478;5.694;2023-04-25T10:47:40;2.55;;;0.55;;
46675;SDS011;32412;51.478;5.694;2023-04-25T10:53:38;3.38;;;1.08;;
46675;SDS011;32412;51.478;5.694;2023-04-25T11:06:27;4.43;;;1.17;;
46675;SDS011;32412;51.478;5.694;2023-04-25T11:12:31;3.70;;;1.02;;
46675;SDS011;32412;51.478;5.694;2023-04-25T11:18:35;2.13;;;1.00;;
46675;SDS011;32412;51.478;5.694;2023-04-25T11:25:20;7.25;;;1.23;;
46675;SDS011;32412;51.478;5.694;2023-04-25T11:27:52;5.30;;;1.15;;
46675;SDS011;32412;51.478;5.694;2023-04-25T11:30:24;5.13;;;1.40;;
46675;SDS011;32412;51.478;5.694;2023-04-25T11:52:37;4.47;;;1.27;;
46675;SDS011;32412;51.478;5.694;2023-04-25T11:55:19;6.45;;;1.30;;
46675;SDS011;32412;51.478;5.694;2023-04-25T11:57:50;4.30;;;1.57;;
46675;SDS011;32412;51.478;5.694;2023-04-25T12:00:22;5.97;;;1.30;;
46675;SDS011;32412;51.478;5.694;2023-04-25T12:02:51;5.53;;;1.02;;
46675;SDS011;32412;51.478;5.694;2023-04-25T12:05:19;3.65;;;1.45;;
46675;SDS011;32412;51.478;5.694;2023-04-25T12:07:57;6.95;;;1.42;;
46675;SDS011;32412;51.478;5.694;2023-04-25T12:10:23;5.43;;;1.83;;
46675;SDS011;32412;51.478;5.694;2023-04-25T12:13:17;5.80;;;1.58;;
46675;SDS011;32412;51.478;5.694;2023-04-25T12:16:01;9.45;;;1.77;;
46675;SDS011;32412;51.478;5.694;2023-04-25T12:18:46;4.95;;;1.13;;
46675;SDS011;32412;51.478;5.694;2023-04-25T12:23:47;3.15;;;1.10;;
46675;SDS011;32412;51.478;5.694;2023-04-25T12:26:18;2.63;;;0.80;;
46675;SDS011;32412;51.478;5.694;2023-04-25T12:28:48;2.38;;;0.90;;
46675;SDS011;32412;51.478;5.694;2023-04-25T12:31:17;5.53;;;0.90;;
46675;SDS011;32412;51.478;5.694;2023-04-25T12:33:46;2.95;;;0.88;;
46675;SDS011;32412;51.478;5.694;2023-04-25T12:36:15;4.15;;;1.05;;
46675;SDS011;32412;51.478;5.694;2023-04-25T12:38:42;3.60;;;0.93;;
46675;SDS011;32412;51.478;5.694;2023-04-25T12:41:29;2.75;;;0.80;;
46675;SDS011;32412;51.478;5.694;2023-04-25T12:50:39;2.30;;;0.85;;
46675;SDS011;32412;51.478;5.694;2023-04-25T12:53:06;3.88;;;0.70;;
46675;SDS011;32412;51.478;5.694;2023-04-25T12:55:31;2.63;;;1.10;;
46675;SDS011;32412;51.478;5.694;2023-04-25T12:58:03;2.55;;;0.63;;
46675;SDS011;32412;51.478;5.694;2023-04-25T13:00:29;1.35;;;0.70;;
46675;SDS011;32412;51.478;5.694;2023-04-25T13:02:55;1.33;;;0.50;;
46675;SDS011;32412;51.478;5.694;2023-04-25T13:05:21;3.15;;;0.93;;
46675;SDS011;32412;51.478;5.694;2023-04-25T13:07:49;2.47;;;0.77;;
46675;SDS011;32412;51.478;5.694;2023-04-25T13:10:16;1.90;;;0.50;;
46675;SDS011;32412;51.478;5.694;2023-04-25T13:12:45;1.98;;;0.70;;
46675;SDS011;32412;51.478;5.694;2023-04-25T13:15:11;2.58;;;0.60;;
46675;SDS011;32412;51.478;5.694;2023-04-25T13:17:41;1.90;;;0.65;;
46675;SDS011;32412;51.478;5.694;2023-04-25T13:22:59;4.40;;;0.80;;
46675;SDS011;32412;51.478;5.694;2023-04-25T13:25:34;5.18;;;1.10;;
46675;SDS011;32412;51.478;5.694;2023-04-25T13:27:59;4.32;;;0.98;;
46675;SDS011;32412;51.478;5.694;2023-04-25T13:30:38;2.45;;;0.98;;
46675;SDS011;32412;51.478;5.694;2023-04-25T13:33:05;2.58;;;0.90;;
46675;SDS011;32412;51.478;5.694;2023-04-25T13:35:31;3.22;;;0.95;;
46675;SDS011;32412;51.478;5.694;2023-04-25T13:37:58;4.13;;;0.98;;
46675;SDS011;32412;51.478;5.694;2023-04-25T13:40:24;4.03;;;1.05;;
46675;SDS011;32412;51.478;5.694;2023-04-25T13:42:59;6.28;;;0.93;;
46675;SDS011;32412;51.478;5.694;2023-04-25T13:45:26;2.83;;;0.63;;
46675;SDS011;32412;51.478;5.694;2023-04-25T13:47:52;3.90;;;1.25;;
46675;SDS011;32412;51.478;5.694;2023-04-25T13:50:20;3.90;;;0.93;;
46675;SDS011;32412;51.478;5.694;2023-04-25T13:52:46;4.32;;;1.38;;
46675;SDS011;32412;51.478;5.694;2023-04-25T13:55:12;5.07;;;0.90;;
46675;SDS011;32412;51.478;5.694;2023-04-25T13:57:37;3.08;;;0.70;;
46675;SDS011;32412;51.478;5.694;2023-04-25T14:00:04;5.07;;;1.45;;
46675;SDS011;32412;51.478;5.694;2023-04-25T14:02:39;3.42;;;0.98;;
46675;SDS011;32412;51.478;5.694;2023-04-25T14:08:27;3.35;;;1.05;;
46675;SDS011;32412;51.478;5.694;2023-04-25T14:10:55;3.50;;;1.15;;
46675;SDS011;32412;51.478;5.694;2023-04-25T14:13:21;4.82;;;1.08;;
46675;SDS011;32412;51.478;5.694;2023-04-25T14:15:48;6.95;;;1.23;;
46675;SDS011;32412;51.478;5.694;2023-04-25T14:18:15;3.78;;;1.00;;
46675;SDS011;32412;51.478;5.694;2023-04-25T14:20:44;2.35;;;1.13;;
46675;SDS011;32412;51.478;5.694;2023-04-25T14:23:13;4.50;;;1.10;;
46675;SDS011;32412;51.478;5.694;2023-04-25T14:25:38;4.28;;;1.23;;
46675;SDS011;32412;51.478;5.694;2023-04-25T14:28:10;2.35;;;1.10;;
46675;SDS011;32412;51.478;5.694;2023-04-25T14:30:39;5.05;;;1.45;;
46675;SDS011;32412;51.478;5.694;2023-04-25T14:33:08;6.10;;;1.27;;
46675;SDS011;32412;51.478;5.694;2023-04-25T14:35:34;5.75;;;1.38;;
46675;SDS011;32412;51.478;5.694;2023-04-25T14:38:00;5.82;;;1.17;;
46675;SDS011;32412;51.478;5.694;2023-04-25T14:40:26;6.03;;;1.20;;
46675;SDS011;32412;51.478;5.694;2023-04-25T14:42:51;2.70;;;1.10;;
46675;SDS011;32412;51.478;5.694;2023-04-25T14:45:17;3.75;;;0.93;;
46675;SDS011;32412;51.478;5.694;2023-04-25T14:47:43;3.97;;;1.33;;
46675;SDS011;32412;51.478;5.694;2023-04-25T14:50:09;3.85;;;0.95;;
46675;SDS011;32412;51.478;5.694;2023-04-25T14:52:35;6.47;;;1.23;;
46675;SDS011;32412;51.478;5.694;2023-04-25T14:55:01;4.30;;;0.98;;
46675;SDS011;32412;51.478;5.694;2023-04-25T14:57:33;4.68;;;1.25;;
46675;SDS011;32412;51.478;5.694;2023-04-25T14:59:59;5.95;;;1.10;;
46675;SDS011;32412;51.478;5.694;2023-04-25T15:02:30;4.47;;;1.13;;
46675;SDS011;32412;51.478;5.694;2023-04-25T15:04:56;5.32;;;1.10;;
46675;SDS011;32412;51.478;5.694;2023-04-25T15:07:21;3.35;;;1.05;;
46675;SDS011;32412;51.478;5.694;2023-04-25T15:09:47;5.03;;;1.88;;
46675;SDS011;32412;51.478;5.694;2023-04-25T15:12:13;3.95;;;0.90;;
46675;SDS011;32412;51.478;5.694;2023-04-25T15:14:42;6.10;;;0.90;;
46675;SDS011;32412;51.478;5.694;2023-04-25T15:17:07;4.10;;;1.13;;
46675;SDS011;32412;51.478;5.694;2023-04-25T15:19:33;3.72;;;1.15;;
46675;SDS011;32412;51.478;5.694;2023-04-25T15:21:59;3.35;;;1.00;;
46675;SDS011;32412;51.478;5.694;2023-04-25T15:24:28;2.72;;;1.10;;
46675;SDS011;32412;51.478;5.694;2023-04-25T15:26:55;2.42;;;1.00;;
46675;SDS011;32412;51.478;5.694;2023-04-25T15:29:21;3.97;;;1.15;;
46675;SDS011;32412;51.478;5.694;2023-04-25T15:31:50;5.10;;;1.10;;
46675;SDS011;32412;51.478;5.694;2023-04-25T15:34:16;4.47;;;1.30;;
46675;SDS011;32412;51.478;5.694;2023-04-25T15:36:42;8.18;;;1.25;;
46675;SDS011;32412;51.478;5.694;2023-04-25T15:39:11;4.22;;;1.13;;
46675;SDS011;32412;51.478;5.694;2023-04-25T15:41:39;6.57;;;1.27;;
46675;SDS011;32412;51.478;5.694;2023-04-25T15:44:05;6.88;;;1.17;;
46675;SDS011;32412;51.478;5.694;2023-04-25T15:46:32;4.30;;;1.45;;
46675;SDS011;32412;51.478;5.694;2023-04-25T15:49:05;6.00;;;1.20;;
46675;SDS011;32412;51.478;5.694;2023-04-25T15:51:34;4.82;;;1.23;;
46675;SDS011;32412;51.478;5.694;2023-04-25T15:53:59;4.60;;;1.13;;
46675;SDS011;32412;51.478;5.694;2023-04-25T15:56:29;4.40;;;1.17;;
46675;SDS011;32412;51.478;5.694;2023-04-25T15:58:58;2.42;;;1.10;;
46675;SDS011;32412;51.478;5.694;2023-04-25T16:01:24;3.47;;;0.95;;
46675;SDS011;32412;51.478;5.694;2023-04-25T16:03:52;3.63;;;1.00;;
46675;SDS011;32412;51.478;5.694;2023-04-25T16:06:18;4.10;;;1.10;;
46675;SDS011;32412;51.478;5.694;2023-04-25T16:08:44;5.45;;;1.10;;
46675;SDS011;32412;51.478;5.694;2023-04-25T16:11:10;3.15;;;1.00;;
46675;SDS011;32412;51.478;5.694;2023-04-25T16:13:38;6.63;;;1.40;;
46675;SDS011;32412;51.478;5.694;2023-04-25T16:16:05;6.13;;;1.30;;
46675;SDS011;32412;51.478;5.694;2023-04-25T16:28:31;2.92;;;0.82;;
46675;SDS011;32412;51.478;5.694;2023-04-25T16:30:59;2.42;;;0.98;;
46675;SDS011;32412;51.478;5.694;2023-04-25T16:33:30;2.58;;;0.68;;
46675;SDS011;32412;51.478;5.694;2023-04-25T16:36:00;3.60;;;0.98;;
46675;SDS011;32412;51.478;5.694;2023-04-25T16:38:29;3.30;;;1.05;;
46675;SDS011;32412;51.478;5.694;2023-04-25T16:40:54;2.20;;;0.70;;
46675;SDS011;32412;51.478;5.694;2023-04-25T16:43:23;2.90;;;1.25;;
46675;SDS011;32412;51.478;5.694;2023-04-25T16:45:48;2.35;;;1.00;;
46675;SDS011;32412;51.478;5.694;2023-04-25T16:48:14;3.63;;;1.10;;
46675;SDS011;32412;51.478;5.694;2023-04-25T16:50:43;8.07;;;1.25;;
46675;SDS011;32412;51.478;5.694;2023-04-25T16:53:09;3.58;;;1.15;;
46675;SDS011;32412;51.478;5.694;2023-04-25T16:55:34;3.15;;;1.15;;
46675;SDS011;32412;51.478;5.694;2023-04-25T16:58:00;1.90;;;0.75;;
46675;SDS011;32412;51.478;5.694;2023-04-25T17:00:26;2.42;;;0.90;;
46675;SDS011;32412;51.478;5.694;2023-04-25T17:02:57;3.28;;;1.10;;
46675;SDS011;32412;51.478;5.694;2023-04-25T17:05:26;3.88;;;1.10;;
46675;SDS011;32412;51.478;5.694;2023-04-25T17:07:54;3.92;;;1.10;;
46675;SDS011;32412;51.478;5.694;2023-04-25T17:10:21;2.05;;;0.85;;
46675;SDS011;32412;51.478;5.694;2023-04-25T17:12:49;4.88;;;1.00;;
46675;SDS011;32412;51.478;5.694;2023-04-25T17:15:19;7.88;;;1.05;;
46675;SDS011;32412;51.478;5.694;2023-04-25T17:17:49;2.85;;;0.88;;
46675;SDS011;32412;51.478;5.694;2023-04-25T17:20:17;2.85;;;0.80;;
46675;SDS011;32412;51.478;5.694;2023-04-25T17:22:46;3.28;;;1.05;;
46675;SDS011;32412;51.478;5.694;2023-04-25T17:25:13;3.13;;;0.80;;
46675;SDS011;32412;51.478;5.694;2023-04-25T17:27:39;4.15;;;1.10;;
46675;SDS011;32412;51.478;5.694;2023-04-25T17:30:07;5.38;;;1.08;;
46675;SDS011;32412;51.478;5.694;2023-04-25T17:32:33;5.32;;;0.98;;
46675;SDS011;32412;51.478;5.694;2023-04-25T17:34:59;3.83;;;0.95;;
46675;SDS011;32412;51.478;5.694;2023-04-25T17:40:05;4.82;;;0.85;;
46675;SDS011;32412;51.478;5.694;2023-04-25T17:42:34;2.65;;;1.00;;
46675;SDS011;32412;51.478;5.694;2023-04-25T17:45:03;2.05;;;0.90;;
46675;SDS011;32412;51.478;5.694;2023-04-25T17:47:39;4.18;;;0.90;;
46675;SDS011;32412;51.478;5.694;2023-04-25T17:50:06;2.63;;;0.80;;
46675;SDS011;32412;51.478;5.694;2023-04-25T17:52:32;3.60;;;0.90;;
46675;SDS011;32412;51.478;5.694;2023-04-25T17:54:58;5.68;;;1.02;;
46675;SDS011;32412;51.478;5.694;2023-04-25T17:57:24;1.70;;;0.98;;
46675;SDS011;32412;51.478;5.694;2023-04-25T17:59:52;2.10;;;1.00;;
46675;SDS011;32412;51.478;5.694;2023-04-25T18:02:24;8.57;;;1.35;;
46675;SDS011;32412;51.478;5.694;2023-04-25T18:04:50;5.88;;;0.80;;
46675;SDS011;32412;51.478;5.694;2023-04-25T18:07:16;7.30;;;1.17;;
46675;SDS011;32412;51.478;5.694;2023-04-25T18:09:42;4.75;;;1.10;;
46675;SDS011;32412;51.478;5.694;2023-04-25T18:12:08;5.22;;;1.10;;
46675;SDS011;32412;51.478;5.694;2023-04-25T18:14:34;3.30;;;1.30;;
46675;SDS011;32412;51.478;5.694;2023-04-25T18:17:00;6.88;;;1.30;;
46675;SDS011;32412;51.478;5.694;2023-04-25T18:19:28;6.00;;;1.55;;
46675;SDS011;32412;51.478;5.694;2023-04-25T18:21:54;4.95;;;1.38;;
46675;SDS011;32412;51.478;5.694;2023-04-25T18:24:23;7.80;;;1.50;;
46675;SDS011;32412;51.478;5.694;2023-04-25T18:26:53;3.08;;;1.27;;
46675;SDS011;32412;51.478;5.694;2023-04-25T18:29:20;3.17;;;1.58;;
46675;SDS011;32412;51.478;5.694;2023-04-25T18:31:45;8.23;;;2.08;;
46675;SDS011;32412;51.478;5.694;2023-04-25T18:34:12;7.10;;;2.00;;
46675;SDS011;32412;51.478;5.694;2023-04-25T18:36:38;9.07;;;2.33;;
46675;SDS011;32412;51.478;5.694;2023-04-25T18:39:05;5.22;;;1.80;;
46675;SDS011;32412;51.478;5.694;2023-04-25T18:41:33;5.10;;;1.70;;
46675;SDS011;32412;51.478;5.694;2023-04-25T18:44:03;10.38;;;1.52;;
46675;SDS011;32412;51.478;5.694;2023-04-25T18:46:32;6.18;;;2.20;;
46675;SDS011;32412;51.478;5.694;2023-04-25T18:48:59;8.98;;;1.50;;
46675;SDS011;32412;51.478;5.694;2023-04-25T18:51:26;2.60;;;1.58;;
46675;SDS011;32412;51.478;5.694;2023-04-25T18:53:58;4.78;;;1.20;;
46675;SDS011;32412;51.478;5.694;2023-04-25T18:56:26;2.85;;;1.27;;
46675;SDS011;32412;51.478;5.694;2023-04-25T18:58:54;6.82;;;1.50;;
46675;SDS011;32412;51.478;5.694;2023-04-25T19:01:20;5.07;;;1.20;;
46675;SDS011;32412;51.478;5.694;2023-04-25T19:03:47;3.00;;;1.20;;
46675;SDS011;32412;51.478;5.694;2023-04-25T19:06:23;3.80;;;1.35;;
46675;SDS011;32412;51.478;5.694;2023-04-25T19:08:51;10.38;;;1.42;;
46675;SDS011;32412;51.478;5.694;2023-04-25T19:11:18;5.07;;;1.02;;
46675;SDS011;32412;51.478;5.694;2023-04-25T19:13:45;6.50;;;1.30;;
46675;SDS011;32412;51.478;5.694;2023-04-25T19:16:11;5.35;;;1.50;;
46675;SDS011;32412;51.478;5.694;2023-04-25T19:18:37;4.60;;;1.58;;
46675;SDS011;32412;51.478;5.694;2023-04-25T19:21:03;5.85;;;1.40;;
46675;SDS011;32412;51.478;5.694;2023-04-25T19:23:32;5.68;;;1.60;;